createdAt,value
2023-01-21T00:03:23.141Z,0.90
2023-01-21T00:07:26.019Z,0.90
2023-01-21T00:11:27.921Z,1.00
2023-01-21T00:15:29.799Z,0.90
2023-01-21T00:19:32.093Z,0.90
2023-01-21T00:23:33.794Z,0.70
2023-01-21T00:27:35.521Z,0.60
2023-01-21T00:31:37.436Z,0.60
2023-01-21T00:35:39.263Z,0.70
2023-01-21T00:39:42.993Z,0.90
2023-01-21T00:43:44.937Z,0.90
2023-01-21T00:47:48.451Z,0.80
2023-01-21T00:51:50.219Z,0.80
2023-01-21T00:55:52.037Z,0.70
2023-01-21T00:59:53.963Z,0.60
2023-01-21T01:03:55.755Z,0.60
2023-01-21T01:07:57.572Z,0.80
2023-01-21T01:11:59.522Z,0.70
2023-01-21T01:16:02.613Z,0.50
2023-01-21T01:20:08.325Z,0.30
2023-01-21T01:24:10.069Z,0.40
2023-01-21T01:28:11.902Z,0.40
2023-01-21T01:32:13.894Z,0.50
2023-01-21T01:36:27.503Z,0.50
2023-01-21T01:40:40.887Z,0.50
2023-01-21T01:45:00.785Z,0.50
2023-01-21T01:49:17.695Z,0.40
2023-01-21T01:53:19.807Z,0.30
2023-01-21T01:57:23.790Z,0.40
2023-01-21T02:01:25.565Z,0.50
2023-01-21T02:05:27.438Z,0.60
2023-01-21T02:09:30.066Z,0.60
2023-01-21T02:13:31.972Z,0.50
2023-01-21T02:18:18.261Z,0.40
2023-01-21T02:23:04.687Z,0.40
2023-01-21T02:27:36.819Z,0.30
2023-01-21T02:31:53.389Z,0.20
2023-01-21T02:36:13.895Z,0.20
2023-01-21T02:40:21.007Z,0.40
2023-01-21T02:44:49.727Z,0.30
2023-01-21T02:49:07.471Z,0.10
2023-01-21T02:53:27.375Z,0.00
2023-01-21T02:57:46.108Z,0.00
2023-01-21T03:02:15.773Z,0.10
2023-01-21T03:06:39.158Z,0.10
2023-01-21T03:10:44.705Z,0.30
2023-01-21T03:15:19.546Z,0.20
2023-01-21T03:19:21.369Z,0.00
2023-01-21T03:23:28.786Z,-0.10
2023-01-21T03:27:30.985Z,-0.10
2023-01-21T03:31:34.267Z,0.00
2023-01-21T03:35:42.188Z,0.00
2023-01-21T03:40:15.420Z,0.00
2023-01-21T03:44:18.910Z,0.00
2023-01-21T03:48:43.150Z,0.00
2023-01-21T03:52:45.224Z,0.00
2023-01-21T03:56:47.130Z,-0.20
2023-01-21T04:00:49.414Z,-0.30
2023-01-21T04:04:53.226Z,-0.30
2023-01-21T04:08:54.973Z,-0.20
2023-01-21T04:12:56.784Z,-0.20
2023-01-21T04:16:58.566Z,-0.10
2023-01-21T04:21:01.659Z,-0.20
2023-01-21T04:25:05.196Z,-0.20
2023-01-21T04:29:06.941Z,-0.20
2023-01-21T04:33:08.735Z,-0.20
2023-01-21T04:37:16.353Z,-0.20
2023-01-21T04:41:18.073Z,-0.20
2023-01-21T04:45:19.937Z,-0.10
2023-01-21T04:49:21.647Z,-0.10
2023-01-21T04:53:23.521Z,0.00
2023-01-21T04:57:28.384Z,-0.10
2023-01-21T05:01:30.257Z,-0.10
2023-01-21T05:05:32.145Z,0.00
2023-01-21T05:09:33.959Z,-0.10
2023-01-21T05:13:35.895Z,-0.20
2023-01-21T05:17:37.666Z,-0.10
2023-01-21T05:21:39.434Z,-0.10
2023-01-21T05:25:43.440Z,-0.20
2023-01-21T05:29:45.231Z,-0.20
2023-01-21T05:33:47.259Z,-0.10
2023-01-21T05:37:49.044Z,0.00
2023-01-21T05:41:50.778Z,0.00
2023-01-21T05:45:55.241Z,0.00
2023-01-21T05:49:57.165Z,0.00
2023-01-21T05:53:58.950Z,0.00
2023-01-21T05:58:00.722Z,-0.10
2023-01-21T06:02:02.508Z,-0.10
2023-01-21T06:06:04.710Z,0.00
2023-01-21T06:10:07.901Z,-0.10
2023-01-21T06:14:09.934Z,0.00
2023-01-21T06:18:22.813Z,0.00
2023-01-21T06:22:25.425Z,-0.10
2023-01-21T06:26:29.645Z,-0.10
2023-01-21T06:30:31.454Z,0.00
2023-01-21T06:34:33.341Z,0.00
2023-01-21T06:38:36.174Z,0.00
2023-01-21T06:42:38.112Z,0.00
2023-01-21T06:46:43.494Z,0.00
2023-01-21T06:50:51.808Z,-0.10
2023-01-21T06:55:06.884Z,-0.20
2023-01-21T06:59:11.226Z,-0.20
2023-01-21T07:03:15.491Z,0.00
2023-01-21T07:07:17.808Z,0.00
2023-01-21T07:11:19.784Z,-0.10
2023-01-21T07:15:21.690Z,0.00
2023-01-21T07:19:50.233Z,0.10
2023-01-21T07:23:55.520Z,0.00
2023-01-21T07:28:03.435Z,0.10
2023-01-21T07:36:21.288Z,0.20
2023-01-21T07:40:23.142Z,0.20
2023-01-21T07:44:24.950Z,0.20
2023-01-21T07:48:27.156Z,0.10
2023-01-21T07:52:33.573Z,0.10
2023-01-21T07:56:40.259Z,0.10
2023-01-21T08:00:42.386Z,0.20
2023-01-21T08:04:45.460Z,0.20
2023-01-21T08:08:53.332Z,0.10
2023-01-21T08:12:57.778Z,0.30
2023-01-21T08:17:00.669Z,0.20
2023-01-21T08:21:02.599Z,0.30
2023-01-21T08:25:18.410Z,0.40
2023-01-21T08:29:20.331Z,0.30
2023-01-21T08:33:22.214Z,0.40
2023-01-21T08:37:25.206Z,0.50
2023-01-21T08:41:27.019Z,0.50
2023-01-21T08:45:29.276Z,0.50
2023-01-21T08:49:31.170Z,0.50
2023-01-21T08:53:33.471Z,0.60
2023-01-21T08:57:58.606Z,0.50
2023-01-21T09:02:04.322Z,0.70
2023-01-21T09:06:09.199Z,0.80
2023-01-21T09:10:12.665Z,0.80
2023-01-21T09:14:20.949Z,0.90
2023-01-21T09:18:22.916Z,0.80
2023-01-21T09:22:25.972Z,0.80
2023-01-21T09:26:27.910Z,0.90
2023-01-21T09:30:32.382Z,0.90
2023-01-21T09:34:35.866Z,1.00
2023-01-21T09:38:37.993Z,1.00
2023-01-21T09:42:42.798Z,1.10
2023-01-21T09:47:25.705Z,1.10
2023-01-21T09:51:52.618Z,1.10
2023-01-21T09:56:07.269Z,1.20
2023-01-21T10:06:27.717Z,1.30
2023-01-21T10:10:59.129Z,1.30
2023-01-21T10:15:17.647Z,1.40
2023-01-21T10:19:24.163Z,1.30
2023-01-21T10:23:39.543Z,1.40
2023-01-21T10:27:42.288Z,1.40
2023-01-21T10:31:50.264Z,1.40
2023-01-21T10:36:49.840Z,1.40
2023-01-21T10:46:11.781Z,1.40
2023-01-21T10:50:58.855Z,1.50
2023-01-21T10:55:44.125Z,1.50
2023-01-21T11:00:33.220Z,1.60
2023-01-21T11:05:01.788Z,1.60
2023-01-21T11:09:23.520Z,1.50
2023-01-21T11:18:46.013Z,1.60
2023-01-21T11:28:04.505Z,1.70
2023-01-21T11:32:49.561Z,1.70
2023-01-21T11:41:44.869Z,1.80
2023-01-21T11:46:00.702Z,1.80
2023-01-21T11:50:49.231Z,1.80
2023-01-21T11:55:20.797Z,1.90
2023-01-21T12:00:02.709Z,1.90
2023-01-21T12:04:08.580Z,1.80
2023-01-21T12:08:39.600Z,1.80
2023-01-21T12:13:42.373Z,1.80
2023-01-21T12:17:55.723Z,1.90
2023-01-21T12:22:11.812Z,1.90
2023-01-21T12:26:41.551Z,1.90
2023-01-21T12:31:32.748Z,1.80
2023-01-21T12:35:39.372Z,2.00
2023-01-21T12:39:41.268Z,1.90
2023-01-21T12:44:24.836Z,2.00
2023-01-21T12:48:56.646Z,2.00
2023-01-21T12:53:21.062Z,2.00
2023-01-21T12:57:51.908Z,2.10
2023-01-21T13:02:05.695Z,2.20
2023-01-21T13:06:18.213Z,2.20
2023-01-21T13:10:52.946Z,2.20
2023-01-21T13:15:17.755Z,2.20
2023-01-21T13:19:22.981Z,2.20
2023-01-21T13:23:48.628Z,2.30
2023-01-21T13:28:30.422Z,2.30
2023-01-21T13:33:20.309Z,2.30
2023-01-21T13:37:33.477Z,2.30
2023-01-21T13:42:27.012Z,2.30
2023-01-21T13:46:55.202Z,2.20
2023-01-21T13:51:30.748Z,2.20
2023-01-21T13:56:04.057Z,2.00
2023-01-21T14:00:12.887Z,2.00
2023-01-21T14:04:52.280Z,1.90
2023-01-21T14:09:06.907Z,1.90
2023-01-21T14:13:41.856Z,1.80
2023-01-21T14:17:46.378Z,1.70
2023-01-21T14:22:11.899Z,1.70
2023-01-21T14:26:39.930Z,1.70
2023-01-21T14:30:43.585Z,1.70
2023-01-21T14:35:20.764Z,1.60
2023-01-21T14:39:27.224Z,1.60
2023-01-21T14:43:50.998Z,1.60
2023-01-21T14:47:57.792Z,1.60
2023-01-21T14:52:05.554Z,1.50
2023-01-21T14:56:27.231Z,1.50
2023-01-21T15:00:34.491Z,1.60
2023-01-21T15:04:41.226Z,1.60
2023-01-21T15:08:56.653Z,1.50
2023-01-21T15:39:21.612Z,1.60
2023-01-21T15:44:02.160Z,1.60
2023-01-21T15:48:52.934Z,1.50
2023-01-21T15:53:43.194Z,1.50
2023-01-21T16:03:31.131Z,1.50
2023-01-21T16:08:08.882Z,1.50
2023-01-21T16:12:50.706Z,1.50
2023-01-21T16:17:37.684Z,1.60
2023-01-21T16:22:06.826Z,1.60
2023-01-21T16:26:40.150Z,1.50
2023-01-21T16:31:03.722Z,1.50
2023-01-21T16:35:14.593Z,1.60
2023-01-21T16:39:19.276Z,1.60
2023-01-21T16:52:41.784Z,1.60
2023-01-21T17:11:16.973Z,1.60
2023-01-21T17:16:42.523Z,1.60
2023-01-21T17:42:21.592Z,1.60
2023-01-21T17:46:28.271Z,1.60
2023-01-21T17:50:33.337Z,1.50
2023-01-21T19:55:23.158Z,1.70
2023-01-21T19:59:40.059Z,1.70
2023-01-21T20:04:27.484Z,1.70
2023-01-21T20:08:52.144Z,1.80
2023-01-21T20:17:21.846Z,1.80
2023-01-21T20:21:28.767Z,1.80
2023-01-21T20:25:43.822Z,1.80
2023-01-21T20:30:02.955Z,1.80
2023-01-21T20:38:59.096Z,1.80
2023-01-21T20:43:13.805Z,1.70
2023-01-21T20:47:37.691Z,1.80
2023-01-21T20:51:40.915Z,1.80
2023-01-21T20:56:18.668Z,1.90
2023-01-21T21:00:24.289Z,1.80
2023-01-21T21:04:35.888Z,1.90
2023-01-21T21:08:52.399Z,1.90
2023-01-21T21:12:55.707Z,1.90
2023-01-21T21:17:00.113Z,2.00
2023-01-21T21:21:16.267Z,2.00
2023-01-21T21:25:20.703Z,1.90
2023-01-21T21:29:22.795Z,2.00
2023-01-21T21:33:29.042Z,2.00
2023-01-21T21:37:31.016Z,2.10
2023-01-21T21:41:51.730Z,2.00
2023-01-21T21:46:12.083Z,2.00
2023-01-21T21:50:18.943Z,2.00
2023-01-21T21:54:21.064Z,2.00
2023-01-21T21:58:22.945Z,2.10
2023-01-21T22:02:24.880Z,2.00
2023-01-21T22:06:26.858Z,2.10
2023-01-21T22:10:28.762Z,2.10
2023-01-21T22:14:30.541Z,2.10
2023-01-21T22:18:32.674Z,2.00
2023-01-21T22:22:34.445Z,2.10
2023-01-21T22:26:36.285Z,2.10
2023-01-21T22:30:38.367Z,2.10
2023-01-21T22:34:44.091Z,2.10
2023-01-21T22:38:45.913Z,2.10
2023-01-21T22:42:47.686Z,2.20
2023-01-21T22:46:49.496Z,2.20
2023-01-21T22:50:55.951Z,2.10
2023-01-21T22:54:57.745Z,2.00
2023-01-21T22:58:59.856Z,2.00
2023-01-21T23:03:01.606Z,2.10
2023-01-21T23:07:03.425Z,2.10
2023-01-21T23:11:07.101Z,2.10
2023-01-21T23:15:09.552Z,2.10
2023-01-21T23:19:12.243Z,2.00
2023-01-21T23:23:14.127Z,2.10
2023-01-21T23:27:15.860Z,2.00
2023-01-21T23:31:17.983Z,2.00
2023-01-21T23:35:19.858Z,2.00
2023-01-21T23:39:21.628Z,2.10
2023-01-21T23:43:26.975Z,2.10
2023-01-21T23:47:28.818Z,2.10
2023-01-21T23:51:30.617Z,2.20
2023-01-21T23:55:32.397Z,2.10
2023-01-21T23:59:35.732Z,2.00
